Gakona, AK (99586)

12:30 PM AKDT on July 25, 2016 (GMT -0800)
Copper Bluff Subdivision | | Change Station

Elev 1625 ft 62.29 °N, 145.34 °W | Updated 4 minutes ago

Overcast
Overcast
56.2 °F
Feels Like 56.2 °F
N
0.0
Wind Variable Wind from SSE
Gusts 0.0 mph

Today
High -- | Low -- °F
--% Chance of Precip.
Yesterday
High -- | Low -- °F
Precip. -- in
Pressure 29.90 in
Visibility 10.0 miles
Clouds Overcast 8000 ft
Dew Point 53 °F
Humidity 89%
Rainfall 0.05 in
Snow Depth Not available.
4:48 AM 10:45 PM
Waning Gibbous, 62% visible
METAR PAGK 251953Z AUTO 14008KT 10SM OVC080 12/10 A2988 RMK RAE42 SLP123 P0000 T01220100 TSNO $ VIA AUTODIAL
Pressure 29.90 in
Visibility 10.0 miles
Clouds Overcast 8000 ft
Dew Point 53 °F
Humidity 89%
Rainfall 0.05 in
Snow Depth Not available.
4:48 AM 10:45 PM
Waning Gibbous, 62% visible
METAR PAGK 251953Z AUTO 14008KT 10SM OVC080 12/10 A2988 RMK RAE42 SLP123 P0000 T01220100 TSNO $ VIA AUTODIAL

10-Day Weather Forecast

Almanac

Astronomy

Jul. 25, 2016 Rise Set
Actual Time
Civil Twilight
Nautical Twilight
Astronomical Twilight
Moon
Length of Visible Light
Length of Day
Tomorrow will be .
, % of the Moon is Illuminated

Today's Extremes

State Highs State Lows

Community

WunderPhotos

Upload Photos

1,927,415 photos uploaded!

WunderBlog® & News

Nearby

Air Quality

  Air Quality AQ Index Pollutant
Not available.

Snow Depth

Station Depth Elevation

Earthquake Activity

City Distance Mag. Time & Date
Minimum magnitude displayed is 2.5.

Coastal Water Temperatures

Place Temperature

Stations

Nearby Weather Stations

Station Location Temp. Windchill Dew Point Humidity Wind Precip. Elev Updated Type
                   

Watches & Warnings

There are currently no watches in effect.